Skip Navigation LinksHome page > Weather > Current weather Skip Navigation Links

Current Weather

Ronald Reagan Washington National, Washington

For information only: do not use for flight planning or navigation.
Latest weather
Observation time Tuesday, July 28, 2015 9:52 PM EDT
Local time Tuesday, July 28, 2015 10:35 PM EDT
Flight conditions Visual Meteorological Conditions
Winds
Wind direction South-Southwest (210°)
Wind speed 6 mph
Visibility 10 mi.
Sky condition
Ceiling unlimited
Cloud layer few clouds 6,000 ft.
Cloud layer scattered clouds 23,000 ft.
Temperature 81°F
Dewpoint 74°F
Altimeter 30.00 in.Hg
Derived measurements
Relative humidity 79%
Heat index 86°F
Density altitude 1715 ft.
Sea-level pressure 30.00 in.Hg
Remarks
Automated weather observing station with precipitation discriminator.
METAR KDCA 290152Z 21005KT 10SM FEW060 SCT230 27/23 A3000 RMK AO2 SLP158 T02720233

Settings

Location code

InnerDrive.Weather 4.0.5567.0 Release CLR 4.0.30319.34014
Copyright ©2015 Inner Drive Technology. All rights reserved. Portions Copyright ©1986-2015 David Braverman.

Find weather

Site navigation


Skip Navigation Links

Place info

Page info

PayPal - The safer, easier way to pay online!

Return home.

Copyright ©2015 Inner Drive Technology. Purveyors of fine, hand-crafted computer software. Page printed 2015-07-29T02:35:25 UTC.